sensor_id;sensor_type;location;lat;lon;timestamp;P1;durP1;ratioP1;P2;durP2;ratioP2
68432;SDS011;55412;51.350;17.056;2023-03-03T00:00:46;31.15;;;8.88;;
68432;SDS011;55412;51.350;17.056;2023-03-03T00:03:14;54.20;;;12.13;;
68432;SDS011;55412;51.350;17.056;2023-03-03T00:05:44;73.05;;;14.32;;
68432;SDS011;55412;51.350;17.056;2023-03-03T00:08:10;59.50;;;12.48;;
68432;SDS011;55412;51.350;17.056;2023-03-03T00:10:36;48.17;;;10.17;;
68432;SDS011;55412;51.350;17.056;2023-03-03T00:13:05;71.05;;;11.68;;
68432;SDS011;55412;51.350;17.056;2023-03-03T00:15:40;56.63;;;13.00;;
68432;SDS011;55412;51.350;17.056;2023-03-03T00:18:17;41.13;;;11.88;;
68432;SDS011;55412;51.350;17.056;2023-03-03T00:20:58;50.58;;;13.85;;
68432;SDS011;55412;51.350;17.056;2023-03-03T00:26:30;33.45;;;10.70;;
68432;SDS011;55412;51.350;17.056;2023-03-03T00:29:00;41.38;;;10.30;;
68432;SDS011;55412;51.350;17.056;2023-03-03T00:31:32;32.55;;;10.38;;
68432;SDS011;55412;51.350;17.056;2023-03-03T00:34:45;33.00;;;10.48;;
68432;SDS011;55412;51.350;17.056;2023-03-03T00:36:52;27.63;;;9.57;;
68432;SDS011;55412;51.350;17.056;2023-03-03T00:39:25;36.28;;;10.98;;
68432;SDS011;55412;51.350;17.056;2023-03-03T00:41:58;47.75;;;11.98;;
68432;SDS011;55412;51.350;17.056;2023-03-03T00:44:37;35.65;;;10.35;;
68432;SDS011;55412;51.350;17.056;2023-03-03T00:47:23;34.58;;;10.90;;
68432;SDS011;55412;51.350;17.056;2023-03-03T00:52:35;31.88;;;10.30;;
68432;SDS011;55412;51.350;17.056;2023-03-03T00:55:06;34.35;;;10.30;;
68432;SDS011;55412;51.350;17.056;2023-03-03T00:57:33;39.15;;;9.25;;
68432;SDS011;55412;51.350;17.056;2023-03-03T00:59:59;43.63;;;14.63;;
68432;SDS011;55412;51.350;17.056;2023-03-03T01:02:25;49.67;;;11.40;;
68432;SDS011;55412;51.350;17.056;2023-03-03T01:04:51;57.33;;;11.85;;
68432;SDS011;55412;51.350;17.056;2023-03-03T01:07:20;30.05;;;9.57;;
68432;SDS011;55412;51.350;17.056;2023-03-03T01:09:46;35.75;;;9.77;;
68432;SDS011;55412;51.350;17.056;2023-03-03T01:12:13;29.43;;;8.60;;
68432;SDS011;55412;51.350;17.056;2023-03-03T01:14:40;33.50;;;9.27;;
68432;SDS011;55412;51.350;17.056;2023-03-03T01:17:06;30.65;;;9.25;;
68432;SDS011;55412;51.350;17.056;2023-03-03T01:19:33;33.90;;;9.23;;
68432;SDS011;55412;51.350;17.056;2023-03-03T01:21:59;35.70;;;8.05;;
68432;SDS011;55412;51.350;17.056;2023-03-03T01:24:25;31.17;;;9.70;;
68432;SDS011;55412;51.350;17.056;2023-03-03T01:26:51;32.25;;;8.93;;
68432;SDS011;55412;51.350;17.056;2023-03-03T01:29:17;38.58;;;10.35;;
68432;SDS011;55412;51.350;17.056;2023-03-03T01:31:43;24.83;;;8.85;;
68432;SDS011;55412;51.350;17.056;2023-03-03T01:34:09;33.53;;;8.98;;
68432;SDS011;55412;51.350;17.056;2023-03-03T01:36:35;29.07;;;7.77;;
68432;SDS011;55412;51.350;17.056;2023-03-03T01:39:02;40.40;;;9.63;;
68432;SDS011;55412;51.350;17.056;2023-03-03T01:41:28;40.33;;;10.05;;
68432;SDS011;55412;51.350;17.056;2023-03-03T01:43:57;35.15;;;9.60;;
68432;SDS011;55412;51.350;17.056;2023-03-03T01:49:13;30.10;;;10.40;;
68432;SDS011;55412;51.350;17.056;2023-03-03T01:51:47;24.13;;;8.68;;
68432;SDS011;55412;51.350;17.056;2023-03-03T01:54:22;33.95;;;9.13;;
68432;SDS011;55412;51.350;17.056;2023-03-03T01:57:04;25.42;;;7.80;;
68432;SDS011;55412;51.350;17.056;2023-03-03T01:59:37;32.47;;;10.02;;
68432;SDS011;55412;51.350;17.056;2023-03-03T02:02:09;33.77;;;9.27;;
68432;SDS011;55412;51.350;17.056;2023-03-03T02:04:35;24.73;;;8.88;;
68432;SDS011;55412;51.350;17.056;2023-03-03T02:07:04;33.00;;;8.90;;
68432;SDS011;55412;51.350;17.056;2023-03-03T02:12:20;27.80;;;8.93;;
68432;SDS011;55412;51.350;17.056;2023-03-03T02:15:18;20.67;;;6.97;;
68432;SDS011;55412;51.350;17.056;2023-03-03T02:17:50;25.73;;;7.57;;
68432;SDS011;55412;51.350;17.056;2023-03-03T02:23:25;21.02;;;6.05;;
68432;SDS011;55412;51.350;17.056;2023-03-03T02:26:11;15.90;;;5.47;;
68432;SDS011;55412;51.350;17.056;2023-03-03T02:28:40;17.40;;;5.57;;
68432;SDS011;55412;51.350;17.056;2023-03-03T02:31:08;14.45;;;5.20;;
68432;SDS011;55412;51.350;17.056;2023-03-03T02:33:39;18.60;;;5.57;;
68432;SDS011;55412;51.350;17.056;2023-03-03T02:36:13;12.52;;;3.80;;
68432;SDS011;55412;51.350;17.056;2023-03-03T02:38:57;23.17;;;6.05;;
68432;SDS011;55412;51.350;17.056;2023-03-03T02:44:51;16.15;;;5.45;;
68432;SDS011;55412;51.350;17.056;2023-03-03T02:47:17;15.40;;;5.20;;
68432;SDS011;55412;51.350;17.056;2023-03-03T02:49:43;21.13;;;4.95;;
68432;SDS011;55412;51.350;17.056;2023-03-03T02:52:10;20.13;;;6.13;;
68432;SDS011;55412;51.350;17.056;2023-03-03T02:54:38;19.00;;;6.07;;
68432;SDS011;55412;51.350;17.056;2023-03-03T02:57:05;16.80;;;6.18;;
68432;SDS011;55412;51.350;17.056;2023-03-03T02:59:33;27.67;;;6.43;;
68432;SDS011;55412;51.350;17.056;2023-03-03T03:01:59;26.48;;;6.03;;
68432;SDS011;55412;51.350;17.056;2023-03-03T03:04:25;18.07;;;5.87;;
68432;SDS011;55412;51.350;17.056;2023-03-03T03:06:52;22.60;;;6.22;;
68432;SDS011;55412;51.350;17.056;2023-03-03T03:09:20;25.15;;;7.18;;
68432;SDS011;55412;51.350;17.056;2023-03-03T03:11:47;24.17;;;6.50;;
68432;SDS011;55412;51.350;17.056;2023-03-03T03:14:14;35.70;;;7.30;;
68432;SDS011;55412;51.350;17.056;2023-03-03T03:16:40;20.77;;;5.13;;
68432;SDS011;55412;51.350;17.056;2023-03-03T03:19:06;19.80;;;5.88;;
68432;SDS011;55412;51.350;17.056;2023-03-03T03:21:32;10.38;;;3.47;;
68432;SDS011;55412;51.350;17.056;2023-03-03T03:23:59;12.07;;;3.25;;
68432;SDS011;55412;51.350;17.056;2023-03-03T03:26:25;19.40;;;5.68;;
68432;SDS011;55412;51.350;17.056;2023-03-03T03:28:51;14.67;;;4.47;;
68432;SDS011;55412;51.350;17.056;2023-03-03T03:31:18;16.73;;;4.63;;
68432;SDS011;55412;51.350;17.056;2023-03-03T03:33:45;16.67;;;4.65;;
68432;SDS011;55412;51.350;17.056;2023-03-03T03:36:12;14.60;;;4.45;;
68432;SDS011;55412;51.350;17.056;2023-03-03T03:38:38;14.32;;;5.07;;
68432;SDS011;55412;51.350;17.056;2023-03-03T03:41:04;15.77;;;4.27;;
68432;SDS011;55412;51.350;17.056;2023-03-03T03:43:32;14.43;;;4.68;;
68432;SDS011;55412;51.350;17.056;2023-03-03T03:45:59;16.15;;;5.47;;
68432;SDS011;55412;51.350;17.056;2023-03-03T03:48:25;11.10;;;3.78;;
68432;SDS011;55412;51.350;17.056;2023-03-03T03:50:52;23.13;;;5.30;;
68432;SDS011;55412;51.350;17.056;2023-03-03T03:53:18;18.47;;;5.67;;
68432;SDS011;55412;51.350;17.056;2023-03-03T03:55:45;20.45;;;6.18;;
68432;SDS011;55412;51.350;17.056;2023-03-03T03:58:12;17.92;;;5.30;;
68432;SDS011;55412;51.350;17.056;2023-03-03T04:00:41;19.17;;;5.97;;
68432;SDS011;55412;51.350;17.056;2023-03-03T04:03:09;16.10;;;4.93;;
68432;SDS011;55412;51.350;17.056;2023-03-03T04:05:36;17.93;;;5.63;;
68432;SDS011;55412;51.350;17.056;2023-03-03T04:08:02;13.82;;;4.35;;
68432;SDS011;55412;51.350;17.056;2023-03-03T04:10:28;23.23;;;6.82;;
68432;SDS011;55412;51.350;17.056;2023-03-03T04:12:55;18.83;;;6.15;;
68432;SDS011;55412;51.350;17.056;2023-03-03T04:15:21;15.82;;;5.13;;
68432;SDS011;55412;51.350;17.056;2023-03-03T04:17:47;22.37;;;6.60;;
68432;SDS011;55412;51.350;17.056;2023-03-03T04:20:13;30.17;;;6.25;;
68432;SDS011;55412;51.350;17.056;2023-03-03T04:22:40;22.70;;;6.13;;
68432;SDS011;55412;51.350;17.056;2023-03-03T04:25:08;16.92;;;5.30;;
68432;SDS011;55412;51.350;17.056;2023-03-03T04:27:39;17.20;;;5.57;;
68432;SDS011;55412;51.350;17.056;2023-03-03T04:30:05;23.07;;;5.77;;
68432;SDS011;55412;51.350;17.056;2023-03-03T04:32:32;19.23;;;5.18;;
68432;SDS011;55412;51.350;17.056;2023-03-03T04:34:59;16.65;;;5.20;;
68432;SDS011;55412;51.350;17.056;2023-03-03T04:37:25;19.23;;;5.18;;
68432;SDS011;55412;51.350;17.056;2023-03-03T04:39:51;21.67;;;6.00;;
68432;SDS011;55412;51.350;17.056;2023-03-03T04:42:17;20.83;;;4.77;;
68432;SDS011;55412;51.350;17.056;2023-03-03T04:44:43;25.08;;;5.35;;
68432;SDS011;55412;51.350;17.056;2023-03-03T04:47:09;15.82;;;5.57;;
68432;SDS011;55412;51.350;17.056;2023-03-03T04:49:35;23.75;;;6.53;;
68432;SDS011;55412;51.350;17.056;2023-03-03T04:52:02;18.33;;;5.20;;
68432;SDS011;55412;51.350;17.056;2023-03-03T04:54:28;16.07;;;4.07;;
68432;SDS011;55412;51.350;17.056;2023-03-03T04:56:55;18.42;;;6.40;;
68432;SDS011;55412;51.350;17.056;2023-03-03T04:59:21;17.02;;;4.63;;
68432;SDS011;55412;51.350;17.056;2023-03-03T05:01:48;15.68;;;4.32;;
68432;SDS011;55412;51.350;17.056;2023-03-03T05:04:15;19.60;;;5.53;;
68432;SDS011;55412;51.350;17.056;2023-03-03T05:06:41;28.30;;;5.17;;
68432;SDS011;55412;51.350;17.056;2023-03-03T05:09:07;27.63;;;5.32;;
68432;SDS011;55412;51.350;17.056;2023-03-03T05:11:33;26.20;;;6.40;;
68432;SDS011;55412;51.350;17.056;2023-03-03T05:14:00;17.88;;;5.55;;
68432;SDS011;55412;51.350;17.056;2023-03-03T05:16:27;18.02;;;4.03;;
68432;SDS011;55412;51.350;17.056;2023-03-03T05:18:53;15.43;;;4.23;;
68432;SDS011;55412;51.350;17.056;2023-03-03T05:21:19;14.73;;;2.88;;
68432;SDS011;55412;51.350;17.056;2023-03-03T05:23:45;18.30;;;5.18;;
68432;SDS011;55412;51.350;17.056;2023-03-03T05:26:11;17.65;;;4.57;;
68432;SDS011;55412;51.350;17.056;2023-03-03T05:28:37;16.30;;;4.32;;
68432;SDS011;55412;51.350;17.056;2023-03-03T05:31:03;16.50;;;4.20;;
68432;SDS011;55412;51.350;17.056;2023-03-03T05:33:29;20.58;;;5.13;;
68432;SDS011;55412;51.350;17.056;2023-03-03T05:35:56;12.77;;;2.78;;
68432;SDS011;55412;51.350;17.056;2023-03-03T05:38:22;16.65;;;4.75;;
68432;SDS011;55412;51.350;17.056;2023-03-03T05:40:49;19.83;;;5.03;;
68432;SDS011;55412;51.350;17.056;2023-03-03T05:43:16;19.88;;;4.78;;
68432;SDS011;55412;51.350;17.056;2023-03-03T05:45:42;18.42;;;6.20;;
68432;SDS011;55412;51.350;17.056;2023-03-03T05:48:08;21.02;;;5.85;;
68432;SDS011;55412;51.350;17.056;2023-03-03T05:50:35;23.70;;;4.70;;
68432;SDS011;55412;51.350;17.056;2023-03-03T05:53:02;24.73;;;4.53;;
68432;SDS011;55412;51.350;17.056;2023-03-03T05:55:29;16.00;;;4.65;;
68432;SDS011;55412;51.350;17.056;2023-03-03T05:57:55;15.23;;;3.95;;
68432;SDS011;55412;51.350;17.056;2023-03-03T06:00:21;9.60;;;3.08;;
68432;SDS011;55412;51.350;17.056;2023-03-03T06:02:47;12.32;;;4.00;;
68432;SDS011;55412;51.350;17.056;2023-03-03T06:05:13;15.03;;;4.33;;
68432;SDS011;55412;51.350;17.056;2023-03-03T06:07:39;9.70;;;6.18;;
68432;SDS011;55412;51.350;17.056;2023-03-03T06:10:06;18.45;;;15.07;;
68432;SDS011;55412;51.350;17.056;2023-03-03T06:12:33;21.95;;;7.47;;
68432;SDS011;55412;51.350;17.056;2023-03-03T06:14:59;12.95;;;7.45;;
68432;SDS011;55412;51.350;17.056;2023-03-03T06:17:25;14.90;;;4.93;;
68432;SDS011;55412;51.350;17.056;2023-03-03T06:19:51;54.47;;;48.88;;
68432;SDS011;55412;51.350;17.056;2023-03-03T06:22:17;16.27;;;7.82;;
68432;SDS011;55412;51.350;17.056;2023-03-03T06:24:43;39.58;;;35.97;;
68432;SDS011;55412;51.350;17.056;2023-03-03T06:27:09;37.38;;;32.70;;
68432;SDS011;55412;51.350;17.056;2023-03-03T06:29:35;20.07;;;13.93;;
68432;SDS011;55412;51.350;17.056;2023-03-03T06:32:01;21.60;;;14.98;;
68432;SDS011;55412;51.350;17.056;2023-03-03T06:34:28;15.98;;;5.57;;
68432;SDS011;55412;51.350;17.056;2023-03-03T06:36:54;14.77;;;3.72;;
68432;SDS011;55412;51.350;17.056;2023-03-03T06:39:21;12.35;;;4.80;;
68432;SDS011;55412;51.350;17.056;2023-03-03T06:41:47;14.57;;;4.50;;
68432;SDS011;55412;51.350;17.056;2023-03-03T06:44:13;12.57;;;7.65;;
68432;SDS011;55412;51.350;17.056;2023-03-03T06:46:39;34.88;;;25.60;;
68432;SDS011;55412;51.350;17.056;2023-03-03T06:49:05;33.20;;;15.75;;
68432;SDS011;55412;51.350;17.056;2023-03-03T06:51:32;10.80;;;4.57;;
68432;SDS011;55412;51.350;17.056;2023-03-03T06:54:09;12.07;;;4.50;;
68432;SDS011;55412;51.350;17.056;2023-03-03T06:56:38;10.88;;;3.40;;
68432;SDS011;55412;51.350;17.056;2023-03-03T06:59:12;20.13;;;4.32;;
68432;SDS011;55412;51.350;17.056;2023-03-03T07:01:41;19.83;;;4.10;;
68432;SDS011;55412;51.350;17.056;2023-03-03T07:06:43;12.10;;;4.20;;
68432;SDS011;55412;51.350;17.056;2023-03-03T07:09:21;7.38;;;2.95;;
68432;SDS011;55412;51.350;17.056;2023-03-03T07:12:00;16.17;;;9.35;;
68432;SDS011;55412;51.350;17.056;2023-03-03T07:14:35;11.75;;;5.03;;
68432;SDS011;55412;51.350;17.056;2023-03-03T07:17:12;11.45;;;3.95;;
68432;SDS011;55412;51.350;17.056;2023-03-03T07:19:44;10.03;;;2.80;;
68432;SDS011;55412;51.350;17.056;2023-03-03T07:24:46;6.90;;;2.42;;
68432;SDS011;55412;51.350;17.056;2023-03-03T07:29:50;8.77;;;2.05;;
68432;SDS011;55412;51.350;17.056;2023-03-03T07:32:26;13.73;;;4.47;;
68432;SDS011;55412;51.350;17.056;2023-03-03T07:35:17;11.48;;;4.07;;
68432;SDS011;55412;51.350;17.056;2023-03-03T07:40:47;11.82;;;3.42;;
68432;SDS011;55412;51.350;17.056;2023-03-03T07:43:29;11.52;;;3.72;;
68432;SDS011;55412;51.350;17.056;2023-03-03T07:48:38;14.48;;;4.10;;
68432;SDS011;55412;51.350;17.056;2023-03-03T07:51:21;12.45;;;3.90;;
68432;SDS011;55412;51.350;17.056;2023-03-03T07:54:00;12.95;;;3.47;;
68432;SDS011;55412;51.350;17.056;2023-03-03T07:57:11;10.57;;;3.25;;
68432;SDS011;55412;51.350;17.056;2023-03-03T07:59:45;14.37;;;4.07;;
68432;SDS011;55412;51.350;17.056;2023-03-03T08:02:27;16.00;;;4.20;;
68432;SDS011;55412;51.350;17.056;2023-03-03T08:05:45;14.75;;;4.85;;
68432;SDS011;55412;51.350;17.056;2023-03-03T08:07:57;13.60;;;4.03;;
68432;SDS011;55412;51.350;17.056;2023-03-03T08:13:22;13.57;;;5.70;;
68432;SDS011;55412;51.350;17.056;2023-03-03T08:16:00;18.63;;;3.22;;
68432;SDS011;55412;51.350;17.056;2023-03-03T08:18:48;13.40;;;5.15;;
68432;SDS011;55412;51.350;17.056;2023-03-03T08:21:21;17.95;;;5.68;;
68432;SDS011;55412;51.350;17.056;2023-03-03T08:23:49;18.48;;;5.78;;
68432;SDS011;55412;51.350;17.056;2023-03-03T08:26:20;12.07;;;3.67;;
68432;SDS011;55412;51.350;17.056;2023-03-03T08:28:48;18.70;;;5.72;;
68432;SDS011;55412;51.350;17.056;2023-03-03T08:31:14;16.23;;;4.75;;
68432;SDS011;55412;51.350;17.056;2023-03-03T08:33:41;15.07;;;5.05;;
68432;SDS011;55412;51.350;17.056;2023-03-03T08:36:08;23.17;;;6.97;;
68432;SDS011;55412;51.350;17.056;2023-03-03T08:38:35;12.33;;;3.13;;
68432;SDS011;55412;51.350;17.056;2023-03-03T08:41:02;14.65;;;4.63;;
68432;SDS011;55412;51.350;17.056;2023-03-03T08:43:29;18.05;;;5.65;;
68432;SDS011;55412;51.350;17.056;2023-03-03T08:45:57;16.33;;;5.20;;
68432;SDS011;55412;51.350;17.056;2023-03-03T08:48:25;16.17;;;4.47;;
68432;SDS011;55412;51.350;17.056;2023-03-03T08:50:52;17.40;;;6.33;;
68432;SDS011;55412;51.350;17.056;2023-03-03T08:53:20;22.08;;;7.00;;
68432;SDS011;55412;51.350;17.056;2023-03-03T08:55:46;17.95;;;4.72;;
68432;SDS011;55412;51.350;17.056;2023-03-03T08:58:13;21.40;;;6.68;;
68432;SDS011;55412;51.350;17.056;2023-03-03T09:00:42;20.27;;;7.00;;
68432;SDS011;55412;51.350;17.056;2023-03-03T09:03:08;15.67;;;5.70;;
68432;SDS011;55412;51.350;17.056;2023-03-03T09:05:35;20.42;;;6.07;;
68432;SDS011;55412;51.350;17.056;2023-03-03T09:08:03;23.13;;;6.68;;
68432;SDS011;55412;51.350;17.056;2023-03-03T09:10:31;21.02;;;7.63;;
68432;SDS011;55412;51.350;17.056;2023-03-03T09:13:20;21.30;;;6.45;;
68432;SDS011;55412;51.350;17.056;2023-03-03T09:15:45;20.63;;;9.90;;
68432;SDS011;55412;51.350;17.056;2023-03-03T09:18:14;29.52;;;9.00;;
68432;SDS011;55412;51.350;17.056;2023-03-03T09:20:50;31.33;;;10.93;;
68432;SDS011;55412;51.350;17.056;2023-03-03T09:23:36;24.35;;;7.47;;
68432;SDS011;55412;51.350;17.056;2023-03-03T09:28:58;24.20;;;7.07;;
68432;SDS011;55412;51.350;17.056;2023-03-03T09:31:44;27.17;;;8.73;;
68432;SDS011;55412;51.350;17.056;2023-03-03T09:37:02;31.88;;;11.93;;
68432;SDS011;55412;51.350;17.056;2023-03-03T09:40:00;36.72;;;11.45;;
68432;SDS011;55412;51.350;17.056;2023-03-03T09:49:50;23.10;;;6.45;;
68432;SDS011;55412;51.350;17.056;2023-03-03T10:06:24;18.85;;;5.78;;
68432;SDS011;55412;51.350;17.056;2023-03-03T10:12:10;25.77;;;6.57;;
68432;SDS011;55412;51.350;17.056;2023-03-03T10:28:51;23.27;;;7.70;;
68432;SDS011;55412;51.350;17.056;2023-03-03T10:31:58;21.17;;;5.63;;
68432;SDS011;55412;51.350;17.056;2023-03-03T10:40:29;23.97;;;7.90;;
68432;SDS011;55412;51.350;17.056;2023-03-03T10:48:52;18.67;;;6.78;;
68432;SDS011;55412;51.350;17.056;2023-03-03T10:51:52;19.25;;;5.85;;
68432;SDS011;55412;51.350;17.056;2023-03-03T11:03:10;16.35;;;6.00;;
68432;SDS011;55412;51.350;17.056;2023-03-03T11:06:23;15.65;;;5.10;;
68432;SDS011;55412;51.350;17.056;2023-03-03T11:11:52;15.18;;;5.40;;
68432;SDS011;55412;51.350;17.056;2023-03-03T11:18:10;10.93;;;3.92;;
68432;SDS011;55412;51.350;17.056;2023-03-03T11:23:52;14.43;;;4.77;;
68432;SDS011;55412;51.350;17.056;2023-03-03T11:38:09;15.63;;;4.80;;
68432;SDS011;55412;51.350;17.056;2023-03-03T11:40:56;21.67;;;12.50;;
68432;SDS011;55412;51.350;17.056;2023-03-03T11:43:37;9.68;;;2.40;;
68432;SDS011;55412;51.350;17.056;2023-03-03T11:49:05;15.85;;;4.80;;
68432;SDS011;55412;51.350;17.056;2023-03-03T11:51:56;16.03;;;4.70;;
68432;SDS011;55412;51.350;17.056;2023-03-03T12:17:16;14.02;;;4.30;;
68432;SDS011;55412;51.350;17.056;2023-03-03T12:20:50;11.70;;;5.10;;
68432;SDS011;55412;51.350;17.056;2023-03-03T12:26:49;12.35;;;4.53;;
68432;SDS011;55412;51.350;17.056;2023-03-03T12:29:40;15.55;;;4.32;;
68432;SDS011;55412;51.350;17.056;2023-03-03T12:41:29;8.85;;;2.65;;
68432;SDS011;55412;51.350;17.056;2023-03-03T12:44:37;13.05;;;4.25;;
68432;SDS011;55412;51.350;17.056;2023-03-03T12:52:50;25.83;;;7.20;;
68432;SDS011;55412;51.350;17.056;2023-03-03T12:56:05;27.58;;;7.22;;
68432;SDS011;55412;51.350;17.056;2023-03-03T13:07:10;14.70;;;4.47;;
68432;SDS011;55412;51.350;17.056;2023-03-03T13:12:28;10.80;;;3.45;;
68432;SDS011;55412;51.350;17.056;2023-03-03T13:15:20;19.92;;;5.65;;
68432;SDS011;55412;51.350;17.056;2023-03-03T13:23:40;15.48;;;5.30;;
68432;SDS011;55412;51.350;17.056;2023-03-03T13:26:34;15.48;;;4.80;;
68432;SDS011;55412;51.350;17.056;2023-03-03T13:29:18;19.42;;;7.65;;
68432;SDS011;55412;51.350;17.056;2023-03-03T13:31:51;13.93;;;5.30;;
68432;SDS011;55412;51.350;17.056;2023-03-03T13:39:51;31.20;;;15.63;;
68432;SDS011;55412;51.350;17.056;2023-03-03T13:42:39;37.28;;;25.38;;
68432;SDS011;55412;51.350;17.056;2023-03-03T13:51:25;23.55;;;5.30;;
68432;SDS011;55412;51.350;17.056;2023-03-03T14:05:57;19.58;;;11.23;;
68432;SDS011;55412;51.350;17.056;2023-03-03T14:08:44;23.98;;;10.82;;
68432;SDS011;55412;51.350;17.056;2023-03-03T14:14:23;47.07;;;37.33;;
68432;SDS011;55412;51.350;17.056;2023-03-03T14:17:33;84.70;;;65.50;;
68432;SDS011;55412;51.350;17.056;2023-03-03T14:26:14;136.00;;;113.90;;
68432;SDS011;55412;51.350;17.056;2023-03-03T14:28:43;124.70;;;98.63;;
68432;SDS011;55412;51.350;17.056;2023-03-03T14:31:17;145.73;;;113.47;;
68432;SDS011;55412;51.350;17.056;2023-03-03T14:33:58;61.17;;;42.47;;
68432;SDS011;55412;51.350;17.056;2023-03-03T14:36:51;96.78;;;75.10;;
68432;SDS011;55412;51.350;17.056;2023-03-03T14:39:34;64.55;;;49.88;;
68432;SDS011;55412;51.350;17.056;2023-03-03T14:42:11;15.03;;;5.57;;
68432;SDS011;55412;51.350;17.056;2023-03-03T14:44:53;27.63;;;14.70;;
68432;SDS011;55412;51.350;17.056;2023-03-03T14:47:26;32.38;;;8.57;;
68432;SDS011;55412;51.350;17.056;2023-03-03T14:49:54;46.70;;;15.13;;
68432;SDS011;55412;51.350;17.056;2023-03-03T14:52:28;55.08;;;34.63;;
68432;SDS011;55412;51.350;17.056;2023-03-03T14:54:59;64.43;;;51.63;;
68432;SDS011;55412;51.350;17.056;2023-03-03T15:05:31;90.95;;;75.82;;
68432;SDS011;55412;51.350;17.056;2023-03-03T15:12:58;26.55;;;17.60;;
68432;SDS011;55412;51.350;17.056;2023-03-03T15:15:41;43.40;;;33.08;;
68432;SDS011;55412;51.350;17.056;2023-03-03T15:18:17;95.55;;;72.10;;
68432;SDS011;55412;51.350;17.056;2023-03-03T15:20:46;74.23;;;57.73;;
68432;SDS011;55412;51.350;17.056;2023-03-03T15:26:26;26.85;;;8.43;;
68432;SDS011;55412;51.350;17.056;2023-03-03T15:32:27;25.88;;;8.77;;
68432;SDS011;55412;51.350;17.056;2023-03-03T15:35:15;15.90;;;6.20;;
68432;SDS011;55412;51.350;17.056;2023-03-03T15:38:17;24.92;;;7.25;;
68432;SDS011;55412;51.350;17.056;2023-03-03T15:41:57;15.35;;;5.90;;
68432;SDS011;55412;51.350;17.056;2023-03-03T15:47:10;19.02;;;6.53;;
68432;SDS011;55412;51.350;17.056;2023-03-03T16:01:09;20.73;;;7.30;;
68432;SDS011;55412;51.350;17.056;2023-03-03T16:07:04;15.90;;;5.03;;
68432;SDS011;55412;51.350;17.056;2023-03-03T16:18:04;18.23;;;5.97;;
68432;SDS011;55412;51.350;17.056;2023-03-03T16:30:21;20.95;;;6.15;;
68432;SDS011;55412;51.350;17.056;2023-03-03T16:36:12;18.65;;;6.47;;
68432;SDS011;55412;51.350;17.056;2023-03-03T16:39:08;14.15;;;4.97;;
68432;SDS011;55412;51.350;17.056;2023-03-03T16:42:14;21.52;;;6.57;;
68432;SDS011;55412;51.350;17.056;2023-03-03T16:44:51;24.55;;;8.63;;
68432;SDS011;55412;51.350;17.056;2023-03-03T16:50:37;14.77;;;6.47;;
68432;SDS011;55412;51.350;17.056;2023-03-03T17:11:38;18.25;;;5.80;;
68432;SDS011;55412;51.350;17.056;2023-03-03T17:14:39;19.13;;;7.38;;
68432;SDS011;55412;51.350;17.056;2023-03-03T17:17:39;13.23;;;5.50;;
68432;SDS011;55412;51.350;17.056;2023-03-03T17:29:02;20.27;;;6.28;;
68432;SDS011;55412;51.350;17.056;2023-03-03T17:34:49;14.10;;;5.95;;
68432;SDS011;55412;51.350;17.056;2023-03-03T17:43:56;18.35;;;6.43;;
68432;SDS011;55412;51.350;17.056;2023-03-03T17:46:51;13.90;;;5.40;;
68432;SDS011;55412;51.350;17.056;2023-03-03T17:49:36;18.30;;;5.75;;
68432;SDS011;55412;51.350;17.056;2023-03-03T18:23:28;19.33;;;6.32;;
68432;SDS011;55412;51.350;17.056;2023-03-03T18:31:47;12.88;;;4.47;;
68432;SDS011;55412;51.350;17.056;2023-03-03T18:42:37;15.87;;;6.00;;
68432;SDS011;55412;51.350;17.056;2023-03-03T18:50:40;17.58;;;6.45;;
68432;SDS011;55412;51.350;17.056;2023-03-03T18:53:13;14.35;;;4.38;;
68432;SDS011;55412;51.350;17.056;2023-03-03T18:55:57;22.77;;;6.97;;
68432;SDS011;55412;51.350;17.056;2023-03-03T19:01:13;17.05;;;5.82;;
68432;SDS011;55412;51.350;17.056;2023-03-03T19:09:18;16.53;;;5.77;;
68432;SDS011;55412;51.350;17.056;2023-03-03T19:12:09;14.73;;;5.60;;
68432;SDS011;55412;51.350;17.056;2023-03-03T19:14:38;26.20;;;7.32;;
68432;SDS011;55412;51.350;17.056;2023-03-03T19:22:48;18.70;;;5.90;;
68432;SDS011;55412;51.350;17.056;2023-03-03T19:25:22;19.55;;;6.80;;
68432;SDS011;55412;51.350;17.056;2023-03-03T19:52:12;18.37;;;6.13;;
68432;SDS011;55412;51.350;17.056;2023-03-03T19:58:14;15.63;;;4.93;;
68432;SDS011;55412;51.350;17.056;2023-03-03T20:01:13;16.15;;;6.03;;
68432;SDS011;55412;51.350;17.056;2023-03-03T20:03:59;16.30;;;5.00;;
68432;SDS011;55412;51.350;17.056;2023-03-03T20:07:01;16.03;;;5.10;;
68432;SDS011;55412;51.350;17.056;2023-03-03T20:13:10;14.23;;;5.15;;
68432;SDS011;55412;51.350;17.056;2023-03-03T20:24:23;11.82;;;4.25;;
68432;SDS011;55412;51.350;17.056;2023-03-03T20:27:13;12.82;;;5.05;;
68432;SDS011;55412;51.350;17.056;2023-03-03T20:35:16;15.00;;;4.80;;
68432;SDS011;55412;51.350;17.056;2023-03-03T20:38:02;11.15;;;4.03;;
68432;SDS011;55412;51.350;17.056;2023-03-03T20:41:00;13.18;;;4.43;;
68432;SDS011;55412;51.350;17.056;2023-03-03T20:43:44;12.55;;;5.15;;
68432;SDS011;55412;51.350;17.056;2023-03-03T20:46:21;16.10;;;4.57;;
68432;SDS011;55412;51.350;17.056;2023-03-03T20:52:20;11.38;;;4.35;;
68432;SDS011;55412;51.350;17.056;2023-03-03T20:55:18;8.52;;;3.03;;
68432;SDS011;55412;51.350;17.056;2023-03-03T21:00:33;8.85;;;3.45;;
68432;SDS011;55412;51.350;17.056;2023-03-03T21:03:25;10.57;;;3.07;;
68432;SDS011;55412;51.350;17.056;2023-03-03T21:06:11;10.82;;;4.18;;
68432;SDS011;55412;51.350;17.056;2023-03-03T21:08:55;14.00;;;4.90;;
68432;SDS011;55412;51.350;17.056;2023-03-03T21:11:23;13.65;;;4.18;;
68432;SDS011;55412;51.350;17.056;2023-03-03T21:13:57;15.77;;;4.95;;
68432;SDS011;55412;51.350;17.056;2023-03-03T21:21:36;16.75;;;5.30;;
68432;SDS011;55412;51.350;17.056;2023-03-03T21:24:10;15.88;;;5.25;;
68432;SDS011;55412;51.350;17.056;2023-03-03T21:29:25;11.97;;;4.30;;
68432;SDS011;55412;51.350;17.056;2023-03-03T21:32:00;14.57;;;5.03;;
68432;SDS011;55412;51.350;17.056;2023-03-03T21:34:37;17.95;;;4.88;;
68432;SDS011;55412;51.350;17.056;2023-03-03T21:37:08;14.25;;;5.03;;
68432;SDS011;55412;51.350;17.056;2023-03-03T21:39:41;13.50;;;4.13;;
68432;SDS011;55412;51.350;17.056;2023-03-03T21:44:41;12.13;;;5.15;;
68432;SDS011;55412;51.350;17.056;2023-03-03T21:47:20;10.95;;;3.50;;
68432;SDS011;55412;51.350;17.056;2023-03-03T21:49:48;12.13;;;4.50;;
68432;SDS011;55412;51.350;17.056;2023-03-03T21:52:17;13.48;;;5.03;;
68432;SDS011;55412;51.350;17.056;2023-03-03T21:54:45;13.60;;;4.93;;
68432;SDS011;55412;51.350;17.056;2023-03-03T21:57:14;8.88;;;3.70;;
68432;SDS011;55412;51.350;17.056;2023-03-03T21:59:40;13.57;;;5.05;;
68432;SDS011;55412;51.350;17.056;2023-03-03T22:02:06;13.10;;;4.85;;
68432;SDS011;55412;51.350;17.056;2023-03-03T22:04:34;12.05;;;4.70;;
68432;SDS011;55412;51.350;17.056;2023-03-03T22:07:02;12.87;;;4.10;;
68432;SDS011;55412;51.350;17.056;2023-03-03T22:09:28;8.90;;;3.72;;
68432;SDS011;55412;51.350;17.056;2023-03-03T22:11:54;12.32;;;4.85;;
68432;SDS011;55412;51.350;17.056;2023-03-03T22:14:20;14.35;;;4.85;;